KGJT/GJT METAR and TAF weather

Enter ICAO airport designator
Station Type Date Time Source
KGJT METAR 2022/08/12 13:53 UTC NOAA

KGJT 121353Z 11009KT 10SM CLR 23/11 A3025 RMK AO2 SLP171 T02280106


Station Type Date Time Source
KGJT Decoded METAR 2022/08/12 13:53 UTC NOAA

GRAND JUNCTION WALKER FIELD, CO, United States (KGJT) 39-08N 108-32W 1452M
Aug 12, 2022 - 09:53 AM EDT / 2022.08.12 1353 UTC
Wind: from the ESE (110 degrees) at 10 MPH (9 KT):0
Visibility: 10 mile(s):0
Sky conditions: clear
Temperature: 73.0 F (22.8 C)
Dew Point: 51.1 F (10.6 C)
Relative Humidity: 46%
Pressure (altimeter): 30.25 in. Hg (1024 hPa)
ob: KGJT 121353Z 11009KT 10SM CLR 23/11 A3025 RMK AO2 SLP171 T02280106
cycle: 14

Station Type Date Time Source
KGJT TAF 2022/08/12 12:36 UTC NOAA

TAF KGJT 121134Z 1212/1312 15008KT P6SM FEW100 SCT200
FM121800 26006KT P6SM SCT100
FM122200 16012G25KT P6SM VCTS BKN080CB
FM130100 03011KT P6SM SCT100 BKN120
FM130900 11006KT P6SM FEW100 FEW250

Example: see airport list